sensor_id;sensor_type;location;lat;lon;timestamp;pressure;altitude;pressure_sealevel;temperature;humidity
3590;BME280;1809;48.470;9.226;2023-05-02T00:00:15;156970.69;;;8.93;100.00
3590;BME280;1809;48.470;9.226;2023-05-02T00:02:40;156955.03;;;8.87;100.00
3590;BME280;1809;48.470;9.226;2023-05-02T00:05:06;156934.13;;;8.79;100.00
3590;BME280;1809;48.470;9.226;2023-05-02T00:07:32;156932.81;;;8.78;100.00
3590;BME280;1809;48.470;9.226;2023-05-02T00:09:57;156926.28;;;8.76;100.00
3590;BME280;1809;48.470;9.226;2023-05-02T00:12:23;156934.13;;;8.79;100.00
3590;BME280;1809;48.470;9.226;2023-05-02T00:14:48;156911.94;;;8.70;100.00
3590;BME280;1809;48.470;9.226;2023-05-02T00:17:18;156908.06;;;8.69;100.00
3590;BME280;1809;48.470;9.226;2023-05-02T00:19:43;156893.66;;;8.63;100.00
3590;BME280;1809;48.470;9.226;2023-05-02T00:22:09;156905.44;;;8.68;100.00
3590;BME280;1809;48.470;9.226;2023-05-02T00:24:34;156889.78;;;8.61;100.00
3590;BME280;1809;48.470;9.226;2023-05-02T00:26:59;156876.69;;;8.56;100.00
3590;BME280;1809;48.470;9.226;2023-05-02T00:29:25;156878.00;;;8.57;100.00
3590;BME280;1809;48.470;9.226;2023-05-02T00:31:50;156855.84;;;8.48;100.00
3590;BME280;1809;48.470;9.226;2023-05-02T00:34:16;156858.47;;;8.49;100.00
3590;BME280;1809;48.470;9.226;2023-05-02T00:36:41;156842.81;;;8.43;100.00
3590;BME280;1809;48.470;9.226;2023-05-02T00:39:06;156848.03;;;8.45;100.00
3590;BME280;1809;48.470;9.226;2023-05-02T00:41:32;156864.97;;;8.52;100.00
3590;BME280;1809;48.470;9.226;2023-05-02T00:43:57;156863.69;;;8.51;100.00
3590;BME280;1809;48.470;9.226;2023-05-02T00:46:22;156850.66;;;8.46;100.00
3590;BME280;1809;48.470;9.226;2023-05-02T00:48:48;156827.16;;;8.37;100.00
3590;BME280;1809;48.470;9.226;2023-05-02T00:51:13;156835.00;;;8.40;100.00
3590;BME280;1809;48.470;9.226;2023-05-02T00:53:39;156818.03;;;8.34;100.00
3590;BME280;1809;48.470;9.226;2023-05-02T00:56:06;156811.53;;;8.31;100.00
3590;BME280;1809;48.470;9.226;2023-05-02T00:58:32;156793.19;;;8.24;100.00
3590;BME280;1809;48.470;9.226;2023-05-02T01:01:28;156778.84;;;8.19;100.00
3590;BME280;1809;48.470;9.226;2023-05-02T01:04:24;156769.72;;;8.15;100.00
3590;BME280;1809;48.470;9.226;2023-05-02T01:12:50;156759.28;;;8.11;100.00
3590;BME280;1809;48.470;9.226;2023-05-02T01:15:19;156746.25;;;8.06;100.00
3590;BME280;1809;48.470;9.226;2023-05-02T01:17:46;156755.34;;;8.09;100.00
3590;BME280;1809;48.470;9.226;2023-05-02T01:20:18;156754.06;;;8.09;100.00
3590;BME280;1809;48.470;9.226;2023-05-02T01:22:44;156778.84;;;8.19;100.00
3590;BME280;1809;48.470;9.226;2023-05-02T01:25:36;156772.28;;;8.16;100.00
3590;BME280;1809;48.470;9.226;2023-05-02T01:30:57;156781.44;;;8.20;100.00
3590;BME280;1809;48.470;9.226;2023-05-02T01:33:24;156774.91;;;8.17;100.00
3590;BME280;1809;48.470;9.226;2023-05-02T01:35:52;156780.13;;;8.19;100.00
3590;BME280;1809;48.470;9.226;2023-05-02T01:38:20;156765.78;;;8.13;100.00
3590;BME280;1809;48.470;9.226;2023-05-02T01:40:46;156773.59;;;8.17;100.00
3590;BME280;1809;48.470;9.226;2023-05-02T01:43:15;156794.50;;;8.25;100.00
3590;BME280;1809;48.470;9.226;2023-05-02T01:45:44;156780.13;;;8.19;100.00
3590;BME280;1809;48.470;9.226;2023-05-02T01:48:12;156774.91;;;8.17;100.00
3590;BME280;1809;48.470;9.226;2023-05-02T01:50:40;156774.91;;;8.17;100.00
3590;BME280;1809;48.470;9.226;2023-05-02T01:53:09;156777.53;;;8.18;100.00
3590;BME280;1809;48.470;9.226;2023-05-02T01:55:38;156767.09;;;8.14;100.00
3590;BME280;1809;48.470;9.226;2023-05-02T01:58:06;156767.09;;;8.14;100.00
3590;BME280;1809;48.470;9.226;2023-05-02T02:00:32;156774.91;;;8.17;100.00
3590;BME280;1809;48.470;9.226;2023-05-02T02:02:58;156781.44;;;8.20;100.00
3590;BME280;1809;48.470;9.226;2023-05-02T02:05:25;156802.38;;;8.28;100.00
3590;BME280;1809;48.470;9.226;2023-05-02T02:07:51;156786.69;;;8.22;100.00
3590;BME280;1809;48.470;9.226;2023-05-02T02:10:16;156778.84;;;8.19;100.00
3590;BME280;1809;48.470;9.226;2023-05-02T02:12:51;156751.44;;;8.08;100.00
3590;BME280;1809;48.470;9.226;2023-05-02T02:15:26;156733.19;;;8.01;100.00
3590;BME280;1809;48.470;9.226;2023-05-02T02:18:07;156738.41;;;8.03;100.00
3590;BME280;1809;48.470;9.226;2023-05-02T02:20:36;156725.34;;;7.98;100.00
3590;BME280;1809;48.470;9.226;2023-05-02T02:23:05;156720.16;;;7.96;100.00
3590;BME280;1809;48.470;9.226;2023-05-02T02:25:33;156704.50;;;7.90;100.00
3590;BME280;1809;48.470;9.226;2023-05-02T02:27:59;156690.16;;;7.84;100.00
3590;BME280;1809;48.470;9.226;2023-05-02T02:30:51;156683.63;;;7.82;100.00
3590;BME280;1809;48.470;9.226;2023-05-02T02:33:19;156666.72;;;7.75;100.00
3590;BME280;1809;48.470;9.226;2023-05-02T02:36:03;156660.16;;;7.73;100.00
3590;BME280;1809;48.470;9.226;2023-05-02T02:38:49;156644.50;;;7.67;100.00
3590;BME280;1809;48.470;9.226;2023-05-02T02:41:27;156636.69;;;7.64;100.00
3590;BME280;1809;48.470;9.226;2023-05-02T02:43:59;156626.28;;;7.60;100.00
3590;BME280;1809;48.470;9.226;2023-05-02T02:49:29;156628.88;;;7.61;100.00
3590;BME280;1809;48.470;9.226;2023-05-02T02:52:10;156615.84;;;7.55;100.00
3590;BME280;1809;48.470;9.226;2023-05-02T02:58:01;156592.38;;;7.46;100.00
3590;BME280;1809;48.470;9.226;2023-05-02T03:00:34;156598.88;;;7.49;100.00
3590;BME280;1809;48.470;9.226;2023-05-02T03:03:02;156589.75;;;7.45;100.00
3590;BME280;1809;48.470;9.226;2023-05-02T03:05:32;156581.94;;;7.42;100.00
3590;BME280;1809;48.470;9.226;2023-05-02T03:08:00;156581.94;;;7.42;100.00
3590;BME280;1809;48.470;9.226;2023-05-02T03:10:26;156563.69;;;7.35;100.00
3590;BME280;1809;48.470;9.226;2023-05-02T03:12:56;156557.16;;;7.33;100.00
3590;BME280;1809;48.470;9.226;2023-05-02T03:15:33;156563.69;;;7.35;100.00
3590;BME280;1809;48.470;9.226;2023-05-02T03:18:18;156568.94;;;7.37;100.00
3590;BME280;1809;48.470;9.226;2023-05-02T03:20:43;156541.53;;;7.27;100.00
3590;BME280;1809;48.470;9.226;2023-05-02T03:23:09;156529.81;;;7.22;100.00
3590;BME280;1809;48.470;9.226;2023-05-02T03:25:40;156516.75;;;7.17;100.00
3590;BME280;1809;48.470;9.226;2023-05-02T03:28:08;156503.75;;;7.12;100.00
3590;BME280;1809;48.470;9.226;2023-05-02T03:30:35;156501.13;;;7.11;100.00
3590;BME280;1809;48.470;9.226;2023-05-02T03:33:04;156501.13;;;7.11;100.00
3590;BME280;1809;48.470;9.226;2023-05-02T03:35:31;156514.13;;;7.16;100.00
3590;BME280;1809;48.470;9.226;2023-05-02T03:37:57;156531.09;;;7.23;100.00
3590;BME280;1809;48.470;9.226;2023-05-02T03:40:22;156516.75;;;7.17;100.00
3590;BME280;1809;48.470;9.226;2023-05-02T03:42:47;156521.97;;;7.19;100.00
3590;BME280;1809;48.470;9.226;2023-05-02T03:45:13;156515.44;;;7.17;100.00
3590;BME280;1809;48.470;9.226;2023-05-02T03:47:38;156519.38;;;7.18;100.00
3590;BME280;1809;48.470;9.226;2023-05-02T03:50:04;156520.69;;;7.19;100.00
3590;BME280;1809;48.470;9.226;2023-05-02T03:52:29;156514.13;;;7.16;100.00
3590;BME280;1809;48.470;9.226;2023-05-02T03:54:56;156532.41;;;7.23;100.00
3590;BME280;1809;48.470;9.226;2023-05-02T03:57:21;156523.28;;;7.20;100.00
3590;BME280;1809;48.470;9.226;2023-05-02T03:59:46;156524.59;;;7.20;100.00
3590;BME280;1809;48.470;9.226;2023-05-02T04:02:12;156524.59;;;7.20;100.00
3590;BME280;1809;48.470;9.226;2023-05-02T04:04:38;156550.66;;;7.30;100.00
3590;BME280;1809;48.470;9.226;2023-05-02T04:07:04;156555.84;;;7.32;100.00
3590;BME280;1809;48.470;9.226;2023-05-02T04:09:32;156561.09;;;7.34;100.00
3590;BME280;1809;48.470;9.226;2023-05-02T04:11:57;156576.75;;;7.40;100.00
3590;BME280;1809;48.470;9.226;2023-05-02T04:14:23;156589.75;;;7.45;100.00
3590;BME280;1809;48.470;9.226;2023-05-02T04:16:48;156597.56;;;7.48;100.00
3590;BME280;1809;48.470;9.226;2023-05-02T04:19:14;156609.34;;;7.53;100.00
3590;BME280;1809;48.470;9.226;2023-05-02T04:21:40;156618.41;;;7.56;100.00
3590;BME280;1809;48.470;9.226;2023-05-02T04:24:07;156643.19;;;7.66;100.00
3590;BME280;1809;48.470;9.226;2023-05-02T04:26:33;156645.81;;;7.67;100.00
3590;BME280;1809;48.470;9.226;2023-05-02T04:28:58;156649.75;;;7.69;100.00
3590;BME280;1809;48.470;9.226;2023-05-02T04:31:23;156656.25;;;7.71;100.00
3590;BME280;1809;48.470;9.226;2023-05-02T04:33:49;156674.53;;;7.78;100.00
3590;BME280;1809;48.470;9.226;2023-05-02T04:36:14;156681.03;;;7.81;100.00
3590;BME280;1809;48.470;9.226;2023-05-02T04:38:40;156714.94;;;7.94;100.00
3590;BME280;1809;48.470;9.226;2023-05-02T04:41:05;156735.78;;;8.02;100.00
3590;BME280;1809;48.470;9.226;2023-05-02T04:43:31;156746.25;;;8.06;100.00
3590;BME280;1809;48.470;9.226;2023-05-02T04:45:56;156733.19;;;8.01;100.00
3590;BME280;1809;48.470;9.226;2023-05-02T04:48:22;156751.44;;;8.08;100.00
3590;BME280;1809;48.470;9.226;2023-05-02T04:50:49;156730.59;;;8.00;100.00
3590;BME280;1809;48.470;9.226;2023-05-02T04:53:14;156735.78;;;8.02;100.00
3590;BME280;1809;48.470;9.226;2023-05-02T04:55:39;156761.88;;;8.12;100.00
3590;BME280;1809;48.470;9.226;2023-05-02T04:58:07;156787.94;;;8.22;100.00
3590;BME280;1809;48.470;9.226;2023-05-02T05:00:32;156803.63;;;8.28;100.00
3590;BME280;1809;48.470;9.226;2023-05-02T05:02:57;156799.69;;;8.27;100.00
3590;BME280;1809;48.470;9.226;2023-05-02T05:05:23;156818.03;;;8.34;100.00
3590;BME280;1809;48.470;9.226;2023-05-02T05:07:48;156837.56;;;8.41;100.00
3590;BME280;1809;48.470;9.226;2023-05-02T05:10:13;156863.69;;;8.51;100.00
3590;BME280;1809;48.470;9.226;2023-05-02T05:12:39;156915.88;;;8.72;100.00
3590;BME280;1809;48.470;9.226;2023-05-02T05:15:05;156918.47;;;8.73;100.00
3590;BME280;1809;48.470;9.226;2023-05-02T05:17:31;156983.72;;;8.98;100.00
3590;BME280;1809;48.470;9.226;2023-05-02T05:19:56;157018.97;;;9.11;100.00
3590;BME280;1809;48.470;9.226;2023-05-02T05:22:21;157069.84;;;9.31;100.00
3590;BME280;1809;48.470;9.226;2023-05-02T05:24:51;157162.56;;;9.67;100.00
3590;BME280;1809;48.470;9.226;2023-05-02T05:27:17;157277.53;;;10.11;100.00
3590;BME280;1809;48.470;9.226;2023-05-02T05:29:42;157408.19;;;10.62;100.00
3590;BME280;1809;48.470;9.226;2023-05-02T05:32:08;157480.09;;;10.90;100.00
3590;BME280;1809;48.470;9.226;2023-05-02T05:34:34;157580.72;;;11.28;100.00
3590;BME280;1809;48.470;9.226;2023-05-02T05:37:00;157532.38;;;11.10;100.00
3590;BME280;1809;48.470;9.226;2023-05-02T05:39:25;157531.06;;;11.09;100.00
3590;BME280;1809;48.470;9.226;2023-05-02T05:41:50;157537.56;;;11.12;100.00
3590;BME280;1809;48.470;9.226;2023-05-02T05:44:16;157535.00;;;11.11;100.00
3590;BME280;1809;48.470;9.226;2023-05-02T05:46:42;157524.53;;;11.07;100.00
3590;BME280;1809;48.470;9.226;2023-05-02T05:49:07;157523.22;;;11.06;100.00
3590;BME280;1809;48.470;9.226;2023-05-02T05:51:32;157162.88;;;11.03;100.00
3590;BME280;1809;48.470;9.226;2023-05-02T05:53:59;155390.16;;;10.91;100.00
3590;BME280;1809;48.470;9.226;2023-05-02T05:56:24;152976.38;;;11.00;100.00
3590;BME280;1809;48.470;9.226;2023-05-02T05:58:49;150199.53;;;11.02;100.00
3590;BME280;1809;48.470;9.226;2023-05-02T06:01:15;147412.41;;;11.00;100.00
3590;BME280;1809;48.470;9.226;2023-05-02T06:03:40;146042.16;;;11.08;100.00
3590;BME280;1809;48.470;9.226;2023-05-02T06:06:06;143964.38;;;11.10;100.00
3590;BME280;1809;48.470;9.226;2023-05-02T06:08:31;141875.91;;;11.08;100.00
3590;BME280;1809;48.470;9.226;2023-05-02T06:10:56;139799.22;;;11.10;100.00
3590;BME280;1809;48.470;9.226;2023-05-02T06:13:22;139493.94;;;11.28;100.00
3590;BME280;1809;48.470;9.226;2023-05-02T06:15:47;138487.84;;;11.43;100.00
3590;BME280;1809;48.470;9.226;2023-05-02T06:18:13;135766.88;;;11.67;100.00
3590;BME280;1809;48.470;9.226;2023-05-02T06:20:38;129848.56;;;11.53;100.00
3590;BME280;1809;48.470;9.226;2023-05-02T06:23:03;123704.41;;;11.93;100.00
3590;BME280;1809;48.470;9.226;2023-05-02T06:25:29;116159.19;;;12.20;100.00
3590;BME280;1809;48.470;9.226;2023-05-02T06:27:54;107871.59;;;12.11;100.00
3590;BME280;1809;48.470;9.226;2023-05-02T06:30:19;103425.75;;;12.27;100.00
3590;BME280;1809;48.470;9.226;2023-05-02T06:32:45;95212.81;;;12.47;100.00
3590;BME280;1809;48.470;9.226;2023-05-02T06:35:10;91782.75;;;12.47;100.00
3590;BME280;1809;48.470;9.226;2023-05-02T06:37:36;93152.84;;;12.46;100.00
3590;BME280;1809;48.470;9.226;2023-05-02T06:40:02;96266.16;;;12.62;100.00
3590;BME280;1809;48.470;9.226;2023-05-02T06:42:27;92151.25;;;12.64;100.00
3590;BME280;1809;48.470;9.226;2023-05-02T06:44:53;91112.78;;;12.57;100.00
3590;BME280;1809;48.470;9.226;2023-05-02T06:47:19;96950.59;;;12.60;100.00
3590;BME280;1809;48.470;9.226;2023-05-02T06:49:44;102444.72;;;12.57;100.00
3590;BME280;1809;48.470;9.226;2023-05-02T06:52:09;105543.34;;;12.58;100.00
3590;BME280;1809;48.470;9.226;2023-05-02T06:54:35;100743.53;;;12.68;100.00
3590;BME280;1809;48.470;9.226;2023-05-02T06:57:00;99699.09;;;12.60;100.00
3590;BME280;1809;48.470;9.226;2023-05-02T06:59:26;101770.22;;;12.65;100.00
3590;BME280;1809;48.470;9.226;2023-05-02T07:01:51;102159.38;;;12.92;100.00
3590;BME280;1809;48.470;9.226;2023-05-02T07:04:17;95617.84;;;12.86;100.00
3590;BME280;1809;48.470;9.226;2023-05-02T07:06:42;95279.09;;;12.89;100.00
3590;BME280;1809;48.470;9.226;2023-05-02T07:09:07;93577.75;;;13.00;100.00
3590;BME280;1809;48.470;9.226;2023-05-02T07:11:33;92906.44;;;13.10;100.00
3590;BME280;1809;48.470;9.226;2023-05-02T07:13:58;90518.97;;;13.20;100.00
3590;BME280;1809;48.470;9.226;2023-05-02T07:16:23;90211.25;;;13.44;100.00
3590;BME280;1809;48.470;9.226;2023-05-02T07:18:49;77208.50;;;13.56;100.00
3590;BME280;1809;48.470;9.226;2023-05-02T07:21:14;66615.97;;;13.50;100.00
3590;BME280;1809;48.470;9.226;2023-05-02T07:23:40;67604.19;;;13.18;100.00
3590;BME280;1809;48.470;9.226;2023-05-02T07:26:05;71712.94;;;13.32;100.00
3590;BME280;1809;48.470;9.226;2023-05-02T07:28:31;70689.13;;;13.32;100.00
3590;BME280;1809;48.470;9.226;2023-05-02T07:30:56;67290.19;;;13.42;100.00
3590;BME280;1809;48.470;9.226;2023-05-02T07:33:22;50272.34;;;13.25;100.00
3590;BME280;1809;48.470;9.226;2023-05-02T07:35:48;41120.88;;;13.14;100.00
3590;BME280;1809;48.470;9.226;2023-05-02T07:38:13;47889.22;;;13.12;100.00
3590;BME280;1809;48.470;9.226;2023-05-02T07:40:39;53317.31;;;13.15;100.00
3590;BME280;1809;48.470;9.226;2023-05-02T07:43:04;63171.72;;;13.13;100.00
3590;BME280;1809;48.470;9.226;2023-05-02T07:45:30;67598.16;;;13.12;100.00
3590;BME280;1809;48.470;9.226;2023-05-02T07:47:55;65569.44;;;13.27;100.00
3590;BME280;1809;48.470;9.226;2023-05-02T07:50:21;56392.31;;;13.36;100.00
3590;BME280;1809;48.470;9.226;2023-05-02T07:52:46;41127.81;;;13.25;100.00
3590;BME280;1809;48.470;9.226;2023-05-02T07:55:12;27621.06;;;13.12;100.00
3590;BME280;1809;48.470;9.226;2023-05-02T07:57:37;23579.69;;;13.06;100.00
3590;BME280;1809;48.470;9.226;2023-05-02T08:00:04;33022.09;;;13.28;100.00
3590;BME280;1809;48.470;9.226;2023-05-02T08:02:34;29643.28;;;13.14;100.00
3590;BME280;1809;48.470;9.226;2023-05-02T08:05:01;29307.50;;;13.17;100.00
3590;BME280;1809;48.470;9.226;2023-05-02T08:07:27;29303.03;;;13.07;100.00
3590;BME280;1809;48.470;9.226;2023-05-02T08:09:52;55332.28;;;12.90;100.00
3590;BME280;1809;48.470;9.226;2023-05-02T08:12:17;62476.34;;;12.99;100.00
3590;BME280;1809;48.470;9.226;2023-05-02T08:14:42;72021.41;;;13.04;100.00
3590;BME280;1809;48.470;9.226;2023-05-02T08:17:08;72011.44;;;12.95;100.00
3590;BME280;1809;48.470;9.226;2023-05-02T08:19:34;74052.25;;;12.89;100.00
3590;BME280;1809;48.470;9.226;2023-05-02T08:21:59;76758.84;;;12.69;100.00
3590;BME280;1809;48.470;9.226;2023-05-02T08:24:25;83242.09;;;12.61;100.00
3590;BME280;1809;48.470;9.226;2023-05-02T08:26:50;79510.53;;;12.84;100.00
3590;BME280;1809;48.470;9.226;2023-05-02T08:29:15;73008.88;;;12.73;100.00
3590;BME280;1809;48.470;9.226;2023-05-02T08:31:41;74393.00;;;12.89;100.00
3590;BME280;1809;48.470;9.226;2023-05-02T08:34:06;75076.97;;;12.90;100.00
3590;BME280;1809;48.470;9.226;2023-05-02T08:36:32;77156.94;;;13.15;100.00
3590;BME280;1809;48.470;9.226;2023-05-02T08:38:57;74765.44;;;13.15;100.00
3590;BME280;1809;48.470;9.226;2023-05-02T08:41:23;78499.91;;;12.95;100.00
3590;BME280;1809;48.470;9.226;2023-05-02T08:43:49;77481.03;;;13.01;100.00
3590;BME280;1809;48.470;9.226;2023-05-02T08:46:15;77486.06;;;13.05;100.00
3590;BME280;1809;48.470;9.226;2023-05-02T08:48:43;79228.78;;;13.31;100.00
3590;BME280;1809;48.470;9.226;2023-05-02T08:51:10;74810.50;;;13.52;100.00
3590;BME280;1809;48.470;9.226;2023-05-02T08:53:37;59811.97;;;13.57;100.00
3590;BME280;1809;48.470;9.226;2023-05-02T08:56:03;53369.47;;;13.76;100.00
3590;BME280;1809;48.470;9.226;2023-05-02T08:58:30;52032.72;;;14.02;100.00
3590;BME280;1809;48.470;9.226;2023-05-02T09:00:59;34755.13;;;14.11;100.00
3590;BME280;1809;48.470;9.226;2023-05-02T09:03:33;18240.13;;;14.38;100.00
3590;BME280;1809;48.470;9.226;2023-05-02T09:06:12;-6474.88;;;14.85;100.00
3590;BME280;1809;48.470;9.226;2023-05-02T09:08:39;-16591.66;;;15.18;100.00
3590;BME280;1809;48.470;9.226;2023-05-02T09:11:05;-16587.03;;;15.01;100.00
3590;BME280;1809;48.470;9.226;2023-05-02T09:13:41;-16582.13;;;14.83;100.00
3590;BME280;1809;48.470;9.226;2023-05-02T09:16:13;-16582.13;;;14.83;100.00
3590;BME280;1809;48.470;9.226;2023-05-02T09:18:41;-16576.94;;;14.65;100.00
3590;BME280;1809;48.470;9.226;2023-05-02T09:21:09;-16583.25;;;14.87;100.00
3590;BME280;1809;48.470;9.226;2023-05-02T09:23:37;-16598.50;;;15.42;100.00
3590;BME280;1809;48.470;9.226;2023-05-02T09:26:32;-16610.28;;;15.85;100.00
3590;BME280;1809;48.470;9.226;2023-05-02T09:29:00;-16617.84;;;16.12;100.00
3590;BME280;1809;48.470;9.226;2023-05-02T09:31:32;-16617.44;;;16.10;100.00
3590;BME280;1809;48.470;9.226;2023-05-02T09:34:10;-16623.03;;;16.31;100.00
3590;BME280;1809;48.470;9.226;2023-05-02T09:36:43;-16608.47;;;15.78;100.00
3590;BME280;1809;48.470;9.226;2023-05-02T09:39:11;-16601.75;;;15.54;100.00
3590;BME280;1809;48.470;9.226;2023-05-02T09:41:41;-16611.28;;;15.88;100.00
3590;BME280;1809;48.470;9.226;2023-05-02T09:44:11;-16623.59;;;16.33;100.00
3590;BME280;1809;48.470;9.226;2023-05-02T09:46:47;-16636.22;;;16.78;100.00
3590;BME280;1809;48.470;9.226;2023-05-02T09:49:13;-16651.06;;;17.32;100.00
3590;BME280;1809;48.470;9.226;2023-05-02T09:51:48;-16654.56;;;17.44;100.00
3590;BME280;1809;48.470;9.226;2023-05-02T09:54:35;-16655.81;;;17.49;100.00
3590;BME280;1809;48.470;9.226;2023-05-02T09:57:01;-16634.81;;;16.73;100.00
3590;BME280;1809;48.470;9.226;2023-05-02T09:59:27;-16629.91;;;16.55;100.00
3590;BME280;1809;48.470;9.226;2023-05-02T10:01:55;-16636.78;;;16.80;100.00
3590;BME280;1809;48.470;9.226;2023-05-02T10:04:21;-16647.84;;;17.20;100.00
3590;BME280;1809;48.470;9.226;2023-05-02T10:06:47;-16652.44;;;17.37;100.00
3590;BME280;1809;48.470;9.226;2023-05-02T10:09:15;-16636.22;;;16.78;100.00
3590;BME280;1809;48.470;9.226;2023-05-02T10:11:43;-16649.94;;;17.28;100.00
3590;BME280;1809;48.470;9.226;2023-05-02T10:14:09;-16646.28;;;17.14;100.00
3590;BME280;1809;48.470;9.226;2023-05-02T10:16:38;-16650.22;;;17.29;100.00
3590;BME280;1809;48.470;9.226;2023-05-02T10:19:08;-16660.72;;;17.66;100.00
3590;BME280;1809;48.470;9.226;2023-05-02T10:21:35;-16668.69;;;17.95;100.00
3590;BME280;1809;48.470;9.226;2023-05-02T10:24:01;-16670.94;;;18.03;100.00
3590;BME280;1809;48.470;9.226;2023-05-02T10:26:30;-16674.28;;;18.15;100.00
3590;BME280;1809;48.470;9.226;2023-05-02T10:31:23;-16669.81;;;17.99;100.00
3590;BME280;1809;48.470;9.226;2023-05-02T10:33:50;-16668.00;;;17.93;100.00
3590;BME280;1809;48.470;9.226;2023-05-02T10:36:20;-16669.53;;;17.98;100.00
3590;BME280;1809;48.470;9.226;2023-05-02T10:38:47;-16671.50;;;18.05;100.00
3590;BME280;1809;48.470;9.226;2023-05-02T10:41:15;-16681.72;;;18.42;100.00
3590;BME280;1809;48.470;9.226;2023-05-02T10:43:46;-16689.69;;;18.71;100.00
3590;BME280;1809;48.470;9.226;2023-05-02T10:46:51;-16697.94;;;19.01;100.00
3590;BME280;1809;48.470;9.226;2023-05-02T10:49:17;-16682.13;;;18.44;100.00
3590;BME280;1809;48.470;9.226;2023-05-02T10:51:42;-16674.16;;;18.15;100.00
3590;BME280;1809;48.470;9.226;2023-05-02T10:59:38;-16660.44;;;17.65;100.00
3590;BME280;1809;48.470;9.226;2023-05-02T11:05:00;-16650.78;;;17.31;100.00
3590;BME280;1809;48.470;9.226;2023-05-02T11:07:27;-16659.31;;;17.61;100.00
3590;BME280;1809;48.470;9.226;2023-05-02T11:09:52;-16679.88;;;18.36;100.00
3590;BME280;1809;48.470;9.226;2023-05-02T11:12:45;-16695.84;;;18.93;100.00
3590;BME280;1809;48.470;9.226;2023-05-02T11:15:11;-16684.09;;;18.51;100.00
3590;BME280;1809;48.470;9.226;2023-05-02T11:18:05;-16664.91;;;17.82;100.00
3590;BME280;1809;48.470;9.226;2023-05-02T11:20:35;-16657.50;;;17.55;100.00
3590;BME280;1809;48.470;9.226;2023-05-02T11:25:41;-16660.56;;;17.66;100.00
3590;BME280;1809;48.470;9.226;2023-05-02T11:31:03;-16684.09;;;18.51;100.00
3590;BME280;1809;48.470;9.226;2023-05-02T11:33:28;-16704.38;;;19.24;100.00
3590;BME280;1809;48.470;9.226;2023-05-02T11:35:54;-16722.69;;;19.90;100.00
3590;BME280;1809;48.470;9.226;2023-05-02T11:38:22;-16716.81;;;19.69;100.00
3590;BME280;1809;48.470;9.226;2023-05-02T11:40:50;-16711.38;;;19.49;100.00
3590;BME280;1809;48.470;9.226;2023-05-02T11:43:17;-16702.84;;;19.18;100.00
3590;BME280;1809;48.470;9.226;2023-05-02T11:45:43;-16700.88;;;19.11;100.00
3590;BME280;1809;48.470;9.226;2023-05-02T11:48:11;-16712.34;;;19.53;100.00
3590;BME280;1809;48.470;9.226;2023-05-02T11:50:45;-16704.38;;;19.24;100.00
3590;BME280;1809;48.470;9.226;2023-05-02T11:53:18;-16709.97;;;19.44;100.00
3590;BME280;1809;48.470;9.226;2023-05-02T11:55:58;-16718.22;;;19.74;100.00
3590;BME280;1809;48.470;9.226;2023-05-02T11:58:25;-16717.66;;;19.72;100.00
3590;BME280;1809;48.470;9.226;2023-05-02T12:00:53;-16711.50;;;19.50;100.00
3590;BME280;1809;48.470;9.226;2023-05-02T12:03:36;-16706.75;;;19.32;100.00
3590;BME280;1809;48.470;9.226;2023-05-02T12:06:10;-16705.34;;;19.27;100.00
3590;BME280;1809;48.470;9.226;2023-05-02T12:08:36;-16694.16;;;18.87;100.00
3590;BME280;1809;48.470;9.226;2023-05-02T12:11:02;-16697.25;;;18.98;100.00
3590;BME280;1809;48.470;9.226;2023-05-02T12:13:28;-16669.09;;;17.97;100.00
3590;BME280;1809;48.470;9.226;2023-05-02T12:15:54;-16667.56;;;17.91;100.00
3590;BME280;1809;48.470;9.226;2023-05-02T12:18:21;-16664.78;;;17.81;100.00
3590;BME280;1809;48.470;9.226;2023-05-02T12:20:49;-16650.50;;;17.30;100.00
3590;BME280;1809;48.470;9.226;2023-05-02T12:23:15;-16643.78;;;17.05;100.00
3590;BME280;1809;48.470;9.226;2023-05-02T12:25:41;-16640.13;;;16.92;100.00
3590;BME280;1809;48.470;9.226;2023-05-02T12:28:07;-16638.16;;;16.85;100.00
3590;BME280;1809;48.470;9.226;2023-05-02T12:30:33;-16641.38;;;16.97;100.00
3590;BME280;1809;48.470;9.226;2023-05-02T12:33:01;-16639.28;;;16.89;100.00
3590;BME280;1809;48.470;9.226;2023-05-02T12:35:27;-16638.16;;;16.85;100.00
3590;BME280;1809;48.470;9.226;2023-05-02T12:37:54;-16631.16;;;16.60;100.00
3590;BME280;1809;48.470;9.226;2023-05-02T12:40:20;-16644.88;;;17.09;100.00
3590;BME280;1809;48.470;9.226;2023-05-02T12:42:59;-16646.44;;;17.15;100.00
3590;BME280;1809;48.470;9.226;2023-05-02T12:45:27;-16648.13;;;17.21;100.00
3590;BME280;1809;48.470;9.226;2023-05-02T12:47:57;-16651.06;;;17.32;100.00
3590;BME280;1809;48.470;9.226;2023-05-02T12:50:37;-16661.13;;;17.68;100.00
3590;BME280;1809;48.470;9.226;2023-05-02T12:53:02;-16674.44;;;18.16;100.00
3590;BME280;1809;48.470;9.226;2023-05-02T12:55:28;-16680.31;;;18.37;100.00
3590;BME280;1809;48.470;9.226;2023-05-02T12:58:07;-16695.28;;;18.91;100.00
3590;BME280;1809;48.470;9.226;2023-05-02T13:00:38;-16700.47;;;19.10;100.00
3590;BME280;1809;48.470;9.226;2023-05-02T13:03:04;-16709.00;;;19.41;100.00
3590;BME280;1809;48.470;9.226;2023-05-02T13:05:30;-16721.84;;;19.87;100.00
3590;BME280;1809;48.470;9.226;2023-05-02T13:07:55;-16714.03;;;19.59;100.00
3590;BME280;1809;48.470;9.226;2023-05-02T13:10:22;-16715.97;;;19.66;100.00
3590;BME280;1809;48.470;9.226;2023-05-02T13:12:49;-16718.34;;;19.74;100.00
3590;BME280;1809;48.470;9.226;2023-05-02T13:15:14;-16722.00;;;19.88;100.00
3590;BME280;1809;48.470;9.226;2023-05-02T13:17:40;-16723.53;;;19.93;100.00
3590;BME280;1809;48.470;9.226;2023-05-02T13:20:06;-16714.31;;;19.60;100.00
3590;BME280;1809;48.470;9.226;2023-05-02T13:22:33;-16720.03;;;19.80;100.00
3590;BME280;1809;48.470;9.226;2023-05-02T13:24:58;-16718.22;;;19.74;100.00
3590;BME280;1809;48.470;9.226;2023-05-02T13:27:24;-16740.31;;;20.54;100.00
3590;BME280;1809;48.470;9.226;2023-05-02T13:29:50;-16728.16;;;20.10;100.00
3590;BME280;1809;48.470;9.226;2023-05-02T13:32:16;-16712.34;;;19.53;100.00
3590;BME280;1809;48.470;9.226;2023-05-02T13:34:41;-16707.88;;;19.37;100.00
3590;BME280;1809;48.470;9.226;2023-05-02T13:37:07;-16693.03;;;18.83;100.00
3590;BME280;1809;48.470;9.226;2023-05-02T13:39:32;-16689.69;;;18.71;100.00
3590;BME280;1809;48.470;9.226;2023-05-02T13:41:58;-16683.25;;;18.48;100.00